createdAt,value
2023-05-19T00:02:09.339Z,76.83
2023-05-19T00:04:40.674Z,78.96
2023-05-19T00:07:09.779Z,77.30
2023-05-19T00:09:38.733Z,77.29
2023-05-19T00:12:07.655Z,75.85
2023-05-19T00:14:36.323Z,75.12
2023-05-19T00:17:08.379Z,75.06
2023-05-19T00:19:38.063Z,74.73
2023-05-19T00:22:10.887Z,74.00
2023-05-19T00:24:39.191Z,73.51
2023-05-19T00:27:07.872Z,74.23
2023-05-19T00:29:36.257Z,73.85
2023-05-19T00:32:04.739Z,73.11
2023-05-19T00:34:33.449Z,73.34
2023-05-19T00:37:01.811Z,72.77
2023-05-19T00:39:34.264Z,73.42
2023-05-19T00:42:02.950Z,73.45
2023-05-19T00:44:31.339Z,73.25
2023-05-19T00:46:59.853Z,74.14
2023-05-19T00:49:28.580Z,75.07
2023-05-19T00:51:57.024Z,73.74
2023-05-19T00:54:25.740Z,73.48
2023-05-19T00:56:57.025Z,73.07
2023-05-19T00:59:25.354Z,73.73
2023-05-19T01:01:54.100Z,74.05
2023-05-19T01:04:25.537Z,72.81
2023-05-19T01:06:55.194Z,72.81
2023-05-19T01:09:24.008Z,73.09
2023-05-19T01:11:52.429Z,72.71
2023-05-19T01:14:22.569Z,73.60
2023-05-19T01:16:52.681Z,73.10
2023-05-19T01:19:28.290Z,72.67
2023-05-19T01:22:02.202Z,72.70
2023-05-19T01:24:35.570Z,72.92
2023-05-19T01:27:11.042Z,72.88
2023-05-19T01:29:46.764Z,72.87
2023-05-19T01:32:18.237Z,72.03
2023-05-19T01:34:47.456Z,71.88
2023-05-19T01:37:15.985Z,72.74
2023-05-19T01:39:44.376Z,72.72
2023-05-19T01:42:13.043Z,73.34
2023-05-19T01:44:41.439Z,73.63
2023-05-19T01:47:10.941Z,72.93
2023-05-19T01:49:41.023Z,72.34
2023-05-19T01:52:09.407Z,72.74
2023-05-19T01:54:38.017Z,72.85
2023-05-19T01:57:11.566Z,72.57
2023-05-19T01:59:43.627Z,71.76
2023-05-19T02:02:14.730Z,71.50
2023-05-19T02:04:45.279Z,71.84
2023-05-19T02:07:15.687Z,72.03
2023-05-19T02:09:46.250Z,72.54
2023-05-19T02:12:16.216Z,71.74
2023-05-19T02:14:46.763Z,70.67
2023-05-19T02:17:16.335Z,70.91
2023-05-19T02:19:46.398Z,71.37
2023-05-19T02:22:18.350Z,71.56
2023-05-19T02:24:51.629Z,71.49
2023-05-19T02:27:20.473Z,71.53
2023-05-19T02:29:48.861Z,71.25
2023-05-19T02:32:17.322Z,71.82
2023-05-19T02:34:47.370Z,71.91
2023-05-19T02:37:15.880Z,71.71
2023-05-19T02:39:44.614Z,71.40
2023-05-19T02:42:14.832Z,71.33
2023-05-19T02:44:43.257Z,71.50
2023-05-19T02:47:11.710Z,71.53
2023-05-19T02:49:40.491Z,71.64
2023-05-19T02:52:10.225Z,73.08
2023-05-19T02:54:38.890Z,72.31
2023-05-19T02:57:07.812Z,72.62
2023-05-19T02:59:36.716Z,73.04
2023-05-19T03:02:05.360Z,73.04
2023-05-19T03:04:41.558Z,73.45
2023-05-19T03:07:13.459Z,72.54
2023-05-19T03:09:42.178Z,72.35
2023-05-19T03:12:12.700Z,73.01
2023-05-19T03:14:41.477Z,72.93
2023-05-19T03:17:10.478Z,72.96
2023-05-19T03:19:38.903Z,73.02
2023-05-19T03:22:07.407Z,73.04
2023-05-19T03:24:37.747Z,73.44
2023-05-19T03:27:06.416Z,73.86
2023-05-19T03:29:34.766Z,73.58
2023-05-19T03:32:04.066Z,73.12
2023-05-19T03:34:33.953Z,73.48
2023-05-19T03:37:02.740Z,73.31
2023-05-19T03:39:31.157Z,73.98
2023-05-19T03:42:00.913Z,73.94
2023-05-19T03:44:29.596Z,73.85
2023-05-19T03:46:57.993Z,73.99
2023-05-19T03:49:28.140Z,73.66
2023-05-19T03:52:09.802Z,73.99
2023-05-19T03:54:39.718Z,73.04
2023-05-19T03:57:11.952Z,73.64
2023-05-19T03:59:41.449Z,73.71
2023-05-19T04:02:10.463Z,74.68
2023-05-19T04:04:39.151Z,75.06
2023-05-19T04:07:08.050Z,74.56
2023-05-19T04:09:37.713Z,74.31
2023-05-19T04:12:06.788Z,73.28
2023-05-19T04:14:36.529Z,73.64
2023-05-19T04:17:05.009Z,73.37
2023-05-19T04:19:34.870Z,73.51
2023-05-19T04:22:03.284Z,73.32
2023-05-19T04:24:34.835Z,74.78
2023-05-19T04:27:04.862Z,74.29
2023-05-19T04:29:33.777Z,74.72
2023-05-19T04:32:06.817Z,74.67
2023-05-19T04:34:35.948Z,74.10
2023-05-19T04:37:04.678Z,74.51
2023-05-19T04:39:33.261Z,74.17
2023-05-19T04:42:02.740Z,74.17
2023-05-19T04:44:35.736Z,74.06
2023-05-19T04:47:06.266Z,72.74
2023-05-19T04:49:38.761Z,71.81
2023-05-19T04:52:08.347Z,69.24
2023-05-19T04:54:36.785Z,70.60
2023-05-19T04:57:05.651Z,69.37
2023-05-19T04:59:34.691Z,66.86
2023-05-19T05:02:04.342Z,66.40
2023-05-19T05:04:34.240Z,67.35
2023-05-19T05:07:03.500Z,66.46
2023-05-19T05:09:32.083Z,64.93
2023-05-19T05:12:01.255Z,63.45
2023-05-19T05:14:30.270Z,62.68
2023-05-19T05:16:58.956Z,64.46
2023-05-19T05:19:27.907Z,64.36
2023-05-19T05:21:58.410Z,64.08
2023-05-19T05:24:27.361Z,64.77
2023-05-19T05:26:56.059Z,65.96
2023-05-19T05:29:25.920Z,64.91
2023-05-19T05:31:54.334Z,66.36
2023-05-19T05:34:24.602Z,66.92
2023-05-19T05:36:53.277Z,65.64
2023-05-19T05:39:23.191Z,65.91
2023-05-19T05:41:54.351Z,67.57
2023-05-19T05:44:23.733Z,66.90
2023-05-19T05:46:52.731Z,65.25
2023-05-19T05:49:21.336Z,65.55
2023-05-19T05:52:01.862Z,66.07
2023-05-19T05:54:35.981Z,66.21
2023-05-19T05:57:05.751Z,65.66
2023-05-19T05:59:34.984Z,64.89
2023-05-19T06:02:03.540Z,65.93
2023-05-19T06:04:32.457Z,65.86
2023-05-19T06:07:01.934Z,64.56
2023-05-19T06:09:33.346Z,64.81
2023-05-19T06:12:03.381Z,64.90
2023-05-19T06:14:32.556Z,63.73
2023-05-19T06:17:05.537Z,66.43
2023-05-19T06:19:34.247Z,65.88
2023-05-19T06:22:04.815Z,64.85
2023-05-19T06:24:33.260Z,66.02
2023-05-19T06:27:03.384Z,63.71
2023-05-19T06:29:31.811Z,64.31
2023-05-19T06:32:02.495Z,63.76
2023-05-19T06:34:31.521Z,63.19
2023-05-19T06:37:02.361Z,62.37
2023-05-19T06:39:32.360Z,62.59
2023-05-19T06:42:01.030Z,63.13
2023-05-19T06:44:42.092Z,61.96
2023-05-19T06:47:10.992Z,62.22
2023-05-19T06:49:39.781Z,61.42
2023-05-19T06:52:08.294Z,61.00
2023-05-19T06:54:36.835Z,60.63
2023-05-19T06:57:06.205Z,60.46
2023-05-19T06:59:34.607Z,59.46
2023-05-19T07:02:04.839Z,58.19
2023-05-19T07:04:34.321Z,58.57
2023-05-19T07:07:03.092Z,58.86
2023-05-19T07:09:31.938Z,56.55
2023-05-19T07:12:01.308Z,55.71
2023-05-19T07:14:30.078Z,57.45
2023-05-19T07:16:58.628Z,57.29
2023-05-19T07:19:28.837Z,56.74
2023-05-19T07:21:57.394Z,55.71
2023-05-19T07:24:27.554Z,55.72
2023-05-19T07:26:56.287Z,56.06
2023-05-19T07:29:24.666Z,55.33
2023-05-19T07:31:57.741Z,57.40
2023-05-19T07:34:26.664Z,56.37
2023-05-19T07:36:56.675Z,55.35
2023-05-19T07:39:27.870Z,53.38
2023-05-19T07:41:59.395Z,55.02
2023-05-19T07:44:28.212Z,57.08
2023-05-19T07:46:56.871Z,56.22
2023-05-19T07:49:25.194Z,55.38
2023-05-19T07:51:53.942Z,57.94
2023-05-19T07:54:23.927Z,56.82
2023-05-19T07:56:56.545Z,56.13
2023-05-19T07:59:25.459Z,53.47
2023-05-19T08:01:53.806Z,54.83
2023-05-19T08:04:22.472Z,55.11
2023-05-19T08:06:52.388Z,53.92
2023-05-19T08:09:20.746Z,55.59
2023-05-19T08:11:50.887Z,54.63
2023-05-19T08:14:19.573Z,55.65
2023-05-19T08:16:48.119Z,56.44
2023-05-19T08:19:16.813Z,55.54
2023-05-19T08:21:45.491Z,54.32
2023-05-19T08:24:13.938Z,53.79
2023-05-19T08:26:42.700Z,54.90
2023-05-19T08:29:12.428Z,55.81
2023-05-19T08:31:40.831Z,55.38
2023-05-19T08:34:09.601Z,52.64
2023-05-19T08:36:38.053Z,54.54
2023-05-19T08:39:06.675Z,55.01
2023-05-19T08:41:35.285Z,54.52
2023-05-19T08:44:03.576Z,52.69
2023-05-19T08:46:33.315Z,53.43
2023-05-19T08:49:03.305Z,53.80
2023-05-19T08:51:37.567Z,54.92
2023-05-19T08:54:09.088Z,53.69
2023-05-19T08:56:37.647Z,52.30
2023-05-19T08:59:08.383Z,52.65
2023-05-19T09:04:11.735Z,55.46
2023-05-19T09:06:42.454Z,56.21
2023-05-19T09:09:10.992Z,54.35
2023-05-19T09:11:39.647Z,55.61
2023-05-19T09:14:11.195Z,53.84
2023-05-19T09:16:41.494Z,54.84
2023-05-19T09:19:15.431Z,55.04
2023-05-19T09:21:45.848Z,54.94
2023-05-19T09:24:14.787Z,53.66
2023-05-19T09:26:43.738Z,53.49
2023-05-19T09:29:12.987Z,53.58
2023-05-19T09:31:44.558Z,53.19
2023-05-19T09:34:16.825Z,51.95
2023-05-19T09:36:45.587Z,51.01
2023-05-19T09:39:14.722Z,51.44
2023-05-19T09:41:43.477Z,50.35
2023-05-19T09:44:15.186Z,50.22
2023-05-19T09:46:51.597Z,50.73
2023-05-19T09:49:20.562Z,52.63
2023-05-19T09:51:52.545Z,53.50
2023-05-19T09:54:23.836Z,50.77
2023-05-19T09:56:53.112Z,51.50
2023-05-19T09:59:21.457Z,52.54
2023-05-19T10:01:51.418Z,50.55
2023-05-19T10:04:20.108Z,50.20
2023-05-19T10:06:49.308Z,51.88
2023-05-19T10:09:17.697Z,50.83
2023-05-19T10:11:46.247Z,53.08
2023-05-19T10:14:14.599Z,51.78
2023-05-19T10:16:43.026Z,52.26
2023-05-19T10:19:15.551Z,50.83
2023-05-19T10:21:43.893Z,51.25
2023-05-19T10:24:13.378Z,50.64
2023-05-19T10:26:42.090Z,50.95
2023-05-19T10:29:10.425Z,50.39
2023-05-19T10:31:40.276Z,51.45
2023-05-19T10:34:14.184Z,50.25
2023-05-19T10:36:47.580Z,48.64
2023-05-19T10:39:18.357Z,50.56
2023-05-19T10:41:48.195Z,51.28
2023-05-19T10:44:18.556Z,51.92
2023-05-19T10:46:47.267Z,50.45
2023-05-19T10:49:21.026Z,47.30
2023-05-19T10:51:51.123Z,48.93
2023-05-19T10:54:22.685Z,48.47
2023-05-19T10:56:51.873Z,48.83
2023-05-19T10:59:33.263Z,47.48
2023-05-19T11:02:04.298Z,47.44
2023-05-19T11:04:48.390Z,47.27
2023-05-19T11:07:21.723Z,44.99
2023-05-19T11:09:53.525Z,44.51
2023-05-19T11:12:24.639Z,46.08
2023-05-19T11:14:53.438Z,46.61
2023-05-19T11:17:23.776Z,44.50
2023-05-19T11:19:55.580Z,45.97
2023-05-19T11:22:29.018Z,46.20
2023-05-19T11:25:00.754Z,45.11
2023-05-19T11:27:31.388Z,43.63
2023-05-19T11:30:01.851Z,44.37
2023-05-19T11:32:33.569Z,44.99
2023-05-19T11:35:02.086Z,42.85
2023-05-19T11:37:34.701Z,43.60
2023-05-19T11:40:03.484Z,43.48
2023-05-19T11:42:32.702Z,42.91
2023-05-19T11:45:01.353Z,42.04
2023-05-19T11:47:32.051Z,42.69
2023-05-19T11:50:05.204Z,42.50
2023-05-19T11:52:35.433Z,40.72
2023-05-19T11:55:05.634Z,39.81
2023-05-19T11:57:34.382Z,40.61
2023-05-19T12:00:09.061Z,40.47
2023-05-19T12:02:37.748Z,40.35
2023-05-19T12:05:06.556Z,42.70
2023-05-19T12:07:36.358Z,39.77
2023-05-19T12:10:05.166Z,43.14
2023-05-19T12:12:35.397Z,42.42
2023-05-19T12:15:03.930Z,42.22
2023-05-19T12:17:33.375Z,41.13
2023-05-19T12:20:01.762Z,41.97
2023-05-19T12:22:30.691Z,42.02
2023-05-19T12:25:01.860Z,41.79
2023-05-19T12:27:30.332Z,38.78
2023-05-19T12:29:59.459Z,39.19
2023-05-19T12:32:28.832Z,39.98
2023-05-19T12:34:57.665Z,35.87
2023-05-19T12:37:27.638Z,37.61
2023-05-19T12:39:56.455Z,38.28
2023-05-19T12:42:26.611Z,37.74
2023-05-19T12:44:55.570Z,37.21
2023-05-19T12:47:23.923Z,38.50
2023-05-19T12:49:56.103Z,36.90
2023-05-19T12:52:24.786Z,37.47
2023-05-19T12:54:59.032Z,36.86
2023-05-19T12:57:29.177Z,36.53
2023-05-19T13:00:01.264Z,35.07
2023-05-19T13:02:30.083Z,36.13
2023-05-19T13:04:58.830Z,38.09
2023-05-19T13:07:27.294Z,36.47
2023-05-19T13:09:56.604Z,37.42
2023-05-19T13:12:26.109Z,36.34
2023-05-19T13:14:56.000Z,37.14
2023-05-19T13:17:24.748Z,37.07
2023-05-19T13:19:53.418Z,37.50
2023-05-19T13:22:22.030Z,36.33
2023-05-19T13:24:51.093Z,36.26
2023-05-19T13:27:19.659Z,33.14
2023-05-19T13:29:47.992Z,34.10
2023-05-19T13:32:17.973Z,34.61
2023-05-19T13:34:46.267Z,35.04
2023-05-19T13:37:14.619Z,34.01
2023-05-19T13:39:43.273Z,33.58
2023-05-19T13:42:11.661Z,35.22
2023-05-19T13:44:40.186Z,37.56
2023-05-19T13:47:08.904Z,35.35
2023-05-19T13:49:38.944Z,35.63
2023-05-19T13:52:07.886Z,35.62
2023-05-19T13:54:36.612Z,36.23
2023-05-19T13:57:06.216Z,35.60
2023-05-19T13:59:36.078Z,33.02
2023-05-19T14:02:08.051Z,35.34
2023-05-19T14:04:39.337Z,34.88
2023-05-19T14:07:07.714Z,34.67
2023-05-19T14:09:36.181Z,35.74
2023-05-19T14:12:06.139Z,34.90
2023-05-19T14:14:34.743Z,37.39
2023-05-19T14:17:03.414Z,38.51
2023-05-19T14:19:32.350Z,38.92
2023-05-19T14:22:02.200Z,39.15
2023-05-19T14:24:30.920Z,40.26
2023-05-19T14:26:59.567Z,39.87
2023-05-19T14:29:28.016Z,37.50
2023-05-19T14:31:56.531Z,40.82
2023-05-19T14:34:25.206Z,39.76
2023-05-19T14:36:53.734Z,38.59
2023-05-19T14:39:23.519Z,36.57
2023-05-19T14:41:53.052Z,35.41
2023-05-19T14:44:21.529Z,36.26
2023-05-19T14:46:49.983Z,34.40
2023-05-19T14:49:18.684Z,33.03
2023-05-19T14:51:47.058Z,33.48
2023-05-19T14:54:15.469Z,33.51
2023-05-19T14:56:45.442Z,34.16
2023-05-19T14:59:13.794Z,32.48
2023-05-19T15:01:42.273Z,31.96
2023-05-19T15:04:11.190Z,32.61
2023-05-19T15:06:39.620Z,32.38
2023-05-19T15:09:09.494Z,32.70
2023-05-19T15:11:38.315Z,33.57
2023-05-19T15:14:08.098Z,33.61
2023-05-19T15:16:36.506Z,33.25
2023-05-19T15:19:05.201Z,31.97
2023-05-19T15:21:33.583Z,31.65
2023-05-19T15:24:01.966Z,34.63
2023-05-19T15:26:30.581Z,34.83
2023-05-19T15:28:59.052Z,37.17
2023-05-19T15:31:28.997Z,37.14
2023-05-19T15:33:57.742Z,37.41
2023-05-19T15:36:26.279Z,37.90
2023-05-19T15:38:54.698Z,37.82
2023-05-19T15:41:23.307Z,36.26
2023-05-19T15:43:51.685Z,36.52
2023-05-19T15:46:23.069Z,37.44
2023-05-19T15:48:53.371Z,38.84
2023-05-19T15:51:21.838Z,38.26
2023-05-19T15:53:50.286Z,37.23
2023-05-19T15:56:19.884Z,37.26
2023-05-19T15:58:48.267Z,37.29
2023-05-19T16:01:16.826Z,38.84
2023-05-19T16:03:48.133Z,39.27
2023-05-19T16:06:18.038Z,40.14
2023-05-19T16:08:46.686Z,38.70
2023-05-19T16:11:15.622Z,39.02
2023-05-19T16:13:44.147Z,39.19
2023-05-19T16:16:12.788Z,39.28
2023-05-19T16:18:41.213Z,39.42
2023-05-19T16:21:09.648Z,39.66
2023-05-19T16:23:39.679Z,39.73
2023-05-19T16:26:08.031Z,40.50
2023-05-19T16:28:36.440Z,39.81
2023-05-19T16:31:05.196Z,40.57
2023-05-19T16:33:33.618Z,41.97
2023-05-19T16:36:02.038Z,40.96
2023-05-19T16:38:30.760Z,42.19
2023-05-19T16:41:00.589Z,42.28
2023-05-19T16:43:29.135Z,42.12
2023-05-19T16:45:57.892Z,42.24
2023-05-19T16:48:26.293Z,42.99
2023-05-19T16:50:55.994Z,42.19
2023-05-19T16:53:24.740Z,43.07
2023-05-19T16:55:53.281Z,44.57
2023-05-19T16:58:23.033Z,45.04
2023-05-19T17:00:52.355Z,46.45
2023-05-19T17:03:20.903Z,47.62
2023-05-19T17:05:49.398Z,47.41
2023-05-19T17:08:18.061Z,46.62
2023-05-19T17:10:46.645Z,47.61
2023-05-19T17:13:15.110Z,47.88
2023-05-19T17:15:45.133Z,48.40
2023-05-19T17:18:16.078Z,47.70
2023-05-19T17:21:05.323Z,48.62
2023-05-19T17:23:34.035Z,50.57
2023-05-19T17:26:05.779Z,50.22
2023-05-19T17:28:34.466Z,50.69
2023-05-19T17:31:09.744Z,51.13
2023-05-19T17:33:38.516Z,51.99
2023-05-19T17:36:07.583Z,51.01
2023-05-19T17:38:40.142Z,51.84
2023-05-19T17:41:10.788Z,52.37
2023-05-19T17:43:39.266Z,53.03
2023-05-19T17:46:09.079Z,53.18
2023-05-19T17:48:37.852Z,53.67
2023-05-19T17:51:07.132Z,53.88
2023-05-19T17:53:36.560Z,54.21
2023-05-19T17:56:06.611Z,54.36
2023-05-19T17:58:35.586Z,54.54
2023-05-19T18:01:04.082Z,54.93
2023-05-19T18:03:34.915Z,55.48
2023-05-19T18:06:03.341Z,55.68
2023-05-19T18:08:32.203Z,55.75
2023-05-19T18:11:04.149Z,56.40
2023-05-19T18:13:34.647Z,56.89
2023-05-19T18:16:04.731Z,56.91
2023-05-19T18:18:37.280Z,57.99
2023-05-19T18:21:06.044Z,58.12
2023-05-19T18:23:34.411Z,57.96
2023-05-19T18:26:02.814Z,58.42
2023-05-19T18:28:31.480Z,58.65
2023-05-19T18:31:00.393Z,59.22
2023-05-19T18:33:30.795Z,59.57
2023-05-19T18:36:01.938Z,59.70
2023-05-19T18:38:30.422Z,60.03
2023-05-19T18:41:00.777Z,60.74
2023-05-19T18:43:30.135Z,61.01
2023-05-19T18:45:58.615Z,60.97
2023-05-19T18:48:27.224Z,61.18
2023-05-19T18:50:55.914Z,61.47
2023-05-19T18:53:25.711Z,61.65
2023-05-19T18:55:54.130Z,62.02
2023-05-19T18:58:26.345Z,62.23
2023-05-19T19:00:55.685Z,62.08
2023-05-19T19:03:24.403Z,62.46
2023-05-19T19:05:56.142Z,62.38
2023-05-19T19:08:26.308Z,62.44
2023-05-19T19:10:59.215Z,62.46
2023-05-19T19:13:27.923Z,62.69
2023-05-19T19:15:56.465Z,62.89
2023-05-19T19:18:26.176Z,63.22
2023-05-19T19:20:58.786Z,63.88
2023-05-19T19:23:28.624Z,63.98
2023-05-19T19:25:57.512Z,64.35
2023-05-19T19:28:25.975Z,64.13
2023-05-19T19:30:54.530Z,64.34
2023-05-19T19:33:23.244Z,64.25
2023-05-19T19:35:51.728Z,65.21
2023-05-19T19:38:20.201Z,64.84
2023-05-19T19:40:51.644Z,65.63
2023-05-19T19:43:20.045Z,65.27
2023-05-19T19:45:59.917Z,65.21
2023-05-19T19:48:36.500Z,65.34
2023-05-19T19:51:08.292Z,65.63
2023-05-19T19:53:36.715Z,65.45
2023-05-19T19:56:07.230Z,65.11
2023-05-19T19:58:35.991Z,66.41
2023-05-19T20:01:05.828Z,65.52
2023-05-19T20:03:34.905Z,65.27
2023-05-19T20:06:03.479Z,64.84
2023-05-19T20:08:31.867Z,64.46
2023-05-19T20:11:00.710Z,65.40
2023-05-19T20:13:32.053Z,65.68
2023-05-19T20:16:01.572Z,65.42
2023-05-19T20:18:30.662Z,65.79
2023-05-19T20:20:59.078Z,65.40
2023-05-19T20:23:27.730Z,65.40
2023-05-19T20:26:10.900Z,65.19
2023-05-19T20:28:42.390Z,65.21
2023-05-19T20:31:10.808Z,65.35
2023-05-19T20:33:39.369Z,65.56
2023-05-19T20:36:08.394Z,65.55
2023-05-19T20:38:36.856Z,65.78
2023-05-19T20:41:07.658Z,65.71
2023-05-19T20:43:36.365Z,65.26
2023-05-19T20:46:06.191Z,65.07
2023-05-19T20:48:34.790Z,65.24
2023-05-19T20:51:06.531Z,64.85
2023-05-19T20:53:57.856Z,65.32
2023-05-19T20:56:26.563Z,65.59
2023-05-19T20:58:55.022Z,65.42
2023-05-19T21:01:26.515Z,65.25
2023-05-19T21:03:55.317Z,65.55
2023-05-19T21:06:23.693Z,65.36
2023-05-19T21:08:52.071Z,65.02
2023-05-19T21:11:21.161Z,65.16
2023-05-19T21:13:51.269Z,65.09
2023-05-19T21:16:19.630Z,65.01
2023-05-19T21:18:49.847Z,65.33
2023-05-19T21:21:18.264Z,64.91
2023-05-19T21:23:46.566Z,64.69
2023-05-19T21:26:15.195Z,64.78
2023-05-19T21:28:43.853Z,64.53
2023-05-19T21:31:13.360Z,65.20
2023-05-19T21:33:42.055Z,64.68
2023-05-19T21:36:11.953Z,64.28
2023-05-19T21:38:40.324Z,64.24
2023-05-19T21:41:08.949Z,64.61
2023-05-19T21:43:37.368Z,64.77
2023-05-19T21:46:05.806Z,65.40
2023-05-19T21:48:34.594Z,65.35
2023-05-19T21:51:03.167Z,65.29
2023-05-19T21:53:32.957Z,65.14
2023-05-19T21:56:01.666Z,65.26
2023-05-19T21:58:30.064Z,65.29
2023-05-19T22:00:59.426Z,65.88
2023-05-19T22:03:28.963Z,65.61
2023-05-19T22:05:57.430Z,65.73
2023-05-19T22:08:26.186Z,65.89
2023-05-19T22:10:56.351Z,66.13
2023-05-19T22:13:24.720Z,67.06
2023-05-19T22:15:53.103Z,66.29
2023-05-19T22:18:21.998Z,65.96
2023-05-19T22:20:50.455Z,66.43
2023-05-19T22:23:18.900Z,66.37
2023-05-19T22:25:47.540Z,66.61
2023-05-19T22:28:17.402Z,66.58
2023-05-19T22:30:45.831Z,66.66
2023-05-19T22:33:14.748Z,66.62
2023-05-19T22:35:43.164Z,66.70
2023-05-19T22:38:11.875Z,66.40
2023-05-19T22:40:40.576Z,66.40
2023-05-19T22:43:08.849Z,66.43
2023-05-19T22:45:38.833Z,67.29
2023-05-19T22:48:07.623Z,66.95
2023-05-19T22:50:36.023Z,66.79
2023-05-19T22:53:04.417Z,66.86
2023-05-19T22:55:33.447Z,67.14
2023-05-19T22:58:01.957Z,67.01
2023-05-19T23:00:30.334Z,67.42
2023-05-19T23:03:00.487Z,67.64
2023-05-19T23:05:28.916Z,68.08
2023-05-19T23:07:57.223Z,71.59
2023-05-19T23:10:25.793Z,68.80
2023-05-19T23:12:54.172Z,67.51
2023-05-19T23:15:22.493Z,67.37
2023-05-19T23:17:51.589Z,67.39
2023-05-19T23:20:21.305Z,67.51
2023-05-19T23:22:49.687Z,67.26
2023-05-19T23:25:18.360Z,67.61
2023-05-19T23:27:47.512Z,67.81
2023-05-19T23:30:15.940Z,68.17
2023-05-19T23:32:44.626Z,68.30
2023-05-19T23:35:13.582Z,68.37
2023-05-19T23:37:43.313Z,68.47
2023-05-19T23:40:12.489Z,68.55
2023-05-19T23:42:40.898Z,67.91
2023-05-19T23:45:09.608Z,67.40
2023-05-19T23:47:38.414Z,67.61
2023-05-19T23:50:07.082Z,67.70
2023-05-19T23:52:35.388Z,68.20
2023-05-19T23:55:05.945Z,68.35
2023-05-19T23:57:34.396Z,68.63
